createdAt,value
2023-03-20T00:00:48.328Z,64.53
2023-03-20T00:01:48.331Z,64.63
2023-03-20T00:02:48.321Z,64.53
2023-03-20T00:03:48.375Z,64.63
2023-03-20T00:04:48.381Z,64.63
2023-03-20T00:05:48.332Z,65.01
2023-03-20T00:06:48.332Z,64.53
2023-03-20T00:07:48.323Z,64.53
2023-03-20T00:08:48.320Z,64.63
2023-03-20T00:09:48.323Z,64.92
2023-03-20T00:10:48.294Z,64.53
2023-03-20T00:11:48.343Z,65.11
2023-03-20T00:12:48.309Z,65.11
2023-03-20T00:13:48.305Z,65.11
2023-03-20T00:14:48.303Z,65.01
2023-03-20T00:15:48.317Z,64.53
2023-03-20T00:16:48.309Z,65.01
2023-03-20T00:17:48.281Z,65.11
2023-03-20T00:18:48.294Z,65.01
2023-03-20T00:19:48.301Z,65.11
2023-03-20T00:20:48.300Z,65.01
2023-03-20T00:21:48.269Z,65.11
2023-03-20T00:22:48.273Z,64.82
2023-03-20T00:23:48.264Z,64.72
2023-03-20T00:24:48.268Z,65.11
2023-03-20T00:25:48.279Z,64.92
2023-03-20T00:26:48.254Z,65.11
2023-03-20T00:27:48.267Z,64.82
2023-03-20T00:28:48.244Z,64.92
2023-03-20T00:29:48.255Z,64.82
2023-03-20T00:30:48.245Z,64.82
2023-03-20T00:31:48.343Z,65.01
2023-03-20T00:32:48.263Z,64.82
2023-03-20T00:33:48.243Z,64.92
2023-03-20T00:34:48.234Z,64.92
2023-03-20T00:35:48.245Z,65.01
2023-03-20T00:36:48.239Z,65.01
2023-03-20T00:37:48.234Z,65.11
2023-03-20T00:38:48.221Z,65.11
2023-03-20T00:39:48.225Z,65.01
2023-03-20T00:40:48.221Z,65.01
2023-03-20T00:41:48.215Z,65.01
2023-03-20T00:42:48.214Z,65.11
2023-03-20T00:43:48.218Z,64.92
2023-03-20T00:44:48.196Z,65.01
2023-03-20T00:45:48.207Z,65.11
2023-03-20T00:46:48.279Z,64.63
2023-03-20T00:47:48.220Z,65.11
2023-03-20T00:48:48.187Z,64.92
2023-03-20T00:49:48.184Z,65.01
2023-03-20T00:50:48.200Z,65.01
2023-03-20T00:51:48.182Z,64.92
2023-03-20T00:52:48.340Z,65.01
2023-03-20T00:53:48.179Z,64.72
2023-03-20T00:54:48.176Z,64.92
2023-03-20T00:55:48.192Z,64.72
2023-03-20T00:56:48.161Z,64.72
2023-03-20T00:57:48.168Z,64.72
2023-03-20T00:58:48.151Z,64.72
2023-03-20T00:59:48.167Z,64.82
2023-03-20T01:00:48.166Z,64.82
2023-03-20T01:01:48.173Z,64.82
2023-03-20T01:02:48.128Z,64.82
2023-03-20T01:03:48.128Z,64.72
2023-03-20T01:04:48.122Z,64.82
2023-03-20T01:05:48.129Z,64.82
2023-03-20T01:06:48.133Z,64.92
2023-03-20T01:07:48.128Z,64.72
2023-03-20T01:08:48.139Z,64.82
2023-03-20T01:09:48.120Z,64.82
2023-03-20T01:10:48.136Z,64.82
2023-03-20T01:11:48.120Z,64.92
2023-03-20T01:12:48.105Z,64.92
2023-03-20T01:13:48.097Z,64.53
2023-03-20T01:14:48.110Z,64.63
2023-03-20T01:15:48.095Z,64.53
2023-03-20T01:16:48.160Z,64.92
2023-03-20T01:17:48.086Z,64.72
2023-03-20T01:18:48.084Z,64.53
2023-03-20T01:19:48.104Z,64.72
2023-03-20T01:20:48.089Z,64.72
2023-03-20T01:21:48.077Z,64.72
2023-03-20T01:22:48.063Z,64.72
2023-03-20T01:23:48.059Z,64.72
2023-03-20T01:24:48.088Z,64.63
2023-03-20T01:25:48.065Z,64.53
2023-03-20T01:26:48.055Z,64.53
2023-03-20T01:27:48.066Z,64.63
2023-03-20T01:28:48.060Z,64.72
2023-03-20T01:29:48.062Z,64.72
2023-03-20T01:30:48.057Z,64.53
2023-03-20T01:31:48.158Z,64.72
2023-03-20T01:32:48.095Z,64.53
2023-03-20T01:33:48.053Z,64.72
2023-03-20T01:34:48.039Z,64.72
2023-03-20T01:35:48.093Z,64.72
2023-03-20T01:36:48.029Z,64.72
2023-03-20T01:37:48.031Z,64.82
2023-03-20T01:38:48.030Z,64.72
2023-03-20T01:39:48.029Z,64.69
2023-03-20T01:40:48.054Z,64.92
2023-03-20T01:41:48.052Z,64.82
2023-03-20T01:42:48.014Z,65.20
2023-03-20T01:43:48.007Z,64.69
2023-03-20T01:44:48.001Z,64.69
2023-03-20T01:45:48.039Z,64.72
2023-03-20T01:46:47.985Z,65.20
2023-03-20T01:47:48.002Z,64.82
2023-03-20T01:48:47.990Z,64.72
2023-03-20T01:49:47.987Z,64.82
2023-03-20T01:50:47.984Z,64.82
2023-03-20T01:51:47.973Z,64.72
2023-03-20T01:52:47.973Z,64.82
2023-03-20T01:53:47.969Z,64.89
2023-03-20T01:54:47.967Z,65.20
2023-03-20T01:55:47.978Z,64.98
2023-03-20T01:56:47.975Z,64.69
2023-03-20T01:57:47.978Z,65.01
2023-03-20T01:58:47.967Z,64.79
2023-03-20T01:59:47.953Z,65.17
2023-03-20T02:00:47.982Z,64.69
2023-03-20T02:01:47.956Z,64.69
2023-03-20T02:02:47.950Z,64.69
2023-03-20T02:03:47.944Z,64.59
2023-03-20T02:04:48.038Z,65.01
2023-03-20T02:05:47.924Z,64.79
2023-03-20T02:06:47.936Z,64.79
2023-03-20T02:07:47.935Z,64.79
2023-03-20T02:08:47.939Z,65.20
2023-03-20T02:09:47.942Z,65.17
2023-03-20T02:10:47.925Z,64.59
2023-03-20T02:11:47.917Z,64.82
2023-03-20T02:12:47.921Z,65.08
2023-03-20T02:13:47.908Z,65.17
2023-03-20T02:14:47.906Z,64.98
2023-03-20T02:15:47.910Z,65.08
2023-03-20T02:16:48.010Z,65.17
2023-03-20T02:17:47.893Z,64.98
2023-03-20T02:18:47.910Z,65.17
2023-03-20T02:19:47.881Z,65.17
2023-03-20T02:20:47.882Z,65.17
2023-03-20T02:21:47.863Z,64.98
2023-03-20T02:22:47.881Z,64.98
2023-03-20T02:23:47.884Z,64.98
2023-03-20T02:24:47.860Z,64.98
2023-03-20T02:25:47.853Z,64.59
2023-03-20T02:26:47.854Z,65.17
2023-03-20T02:27:47.863Z,64.79
2023-03-20T02:28:47.877Z,64.69
2023-03-20T02:29:47.840Z,64.98
2023-03-20T02:30:47.883Z,64.98
2023-03-20T02:31:47.854Z,65.17
2023-03-20T02:32:47.879Z,65.17
2023-03-20T02:33:47.825Z,65.17
2023-03-20T02:34:47.839Z,64.98
2023-03-20T02:35:47.861Z,64.98
2023-03-20T02:36:47.837Z,64.59
2023-03-20T02:37:47.815Z,64.98
2023-03-20T02:38:47.811Z,65.17
2023-03-20T02:39:47.809Z,64.98
2023-03-20T02:40:47.815Z,65.17
2023-03-20T02:41:47.854Z,64.79
2023-03-20T02:42:47.810Z,64.69
2023-03-20T02:43:47.804Z,64.69
2023-03-20T02:44:47.810Z,64.98
2023-03-20T02:45:47.924Z,64.79
2023-03-20T02:46:47.803Z,64.69
2023-03-20T02:47:47.802Z,64.98
2023-03-20T02:48:47.792Z,65.17
2023-03-20T02:49:47.784Z,64.59
2023-03-20T02:50:47.774Z,64.79
2023-03-20T02:51:47.770Z,65.17
2023-03-20T02:52:47.788Z,65.17
2023-03-20T02:53:47.777Z,65.17
2023-03-20T02:54:47.776Z,64.79
2023-03-20T02:55:47.770Z,64.69
2023-03-20T02:56:47.760Z,64.69
2023-03-20T02:57:47.766Z,64.69
2023-03-20T02:58:47.761Z,65.17
2023-03-20T02:59:47.749Z,64.79
2023-03-20T03:00:47.777Z,64.59
2023-03-20T03:01:47.814Z,64.79
2023-03-20T03:02:47.828Z,65.27
2023-03-20T03:03:47.738Z,65.17
2023-03-20T03:04:47.740Z,65.17
2023-03-20T03:05:47.733Z,64.79
2023-03-20T03:06:47.757Z,64.40
2023-03-20T03:07:47.728Z,64.79
2023-03-20T03:08:47.727Z,64.69
2023-03-20T03:09:47.707Z,65.27
2023-03-20T03:10:47.720Z,64.69
2023-03-20T03:11:47.712Z,64.69
2023-03-20T03:12:47.701Z,64.69
2023-03-20T03:13:47.704Z,64.69
2023-03-20T03:14:47.709Z,64.79
2023-03-20T03:15:47.734Z,65.17
2023-03-20T03:16:47.726Z,64.89
2023-03-20T03:17:47.686Z,64.98
2023-03-20T03:18:47.705Z,64.79
2023-03-20T03:19:47.677Z,65.17
2023-03-20T03:20:47.687Z,64.79
2023-03-20T03:21:47.665Z,64.79
2023-03-20T03:22:47.665Z,65.17
2023-03-20T03:23:47.684Z,64.69
2023-03-20T03:24:47.678Z,65.17
2023-03-20T03:25:47.753Z,64.98
2023-03-20T03:26:47.667Z,64.69
2023-03-20T03:27:47.649Z,64.98
2023-03-20T03:28:47.666Z,64.79
2023-03-20T03:29:47.661Z,65.17
2023-03-20T03:30:47.680Z,64.59
2023-03-20T03:31:47.628Z,64.98
2023-03-20T03:32:47.735Z,64.79
2023-03-20T03:33:47.629Z,65.17
2023-03-20T03:34:47.635Z,65.17
2023-03-20T03:35:47.628Z,64.79
2023-03-20T03:36:47.638Z,64.69
2023-03-20T03:37:47.607Z,64.69
2023-03-20T03:38:47.620Z,64.79
2023-03-20T03:39:47.630Z,65.17
2023-03-20T03:40:47.604Z,64.69
2023-03-20T03:41:47.601Z,64.69
2023-03-20T03:42:47.607Z,64.79
2023-03-20T03:43:47.601Z,64.69
2023-03-20T03:44:47.598Z,64.69
2023-03-20T03:45:47.598Z,64.79
2023-03-20T03:46:47.664Z,64.69
2023-03-20T03:47:47.595Z,64.69
2023-03-20T03:48:47.593Z,64.69
2023-03-20T03:49:47.579Z,64.69
2023-03-20T03:50:47.582Z,65.36
2023-03-20T03:51:47.582Z,64.69
2023-03-20T03:52:47.583Z,64.89
2023-03-20T03:53:47.557Z,64.50
2023-03-20T03:54:47.567Z,64.69
2023-03-20T03:55:47.592Z,64.50
2023-03-20T03:56:47.581Z,64.50
2023-03-20T03:57:47.537Z,64.50
2023-03-20T03:58:47.540Z,64.89
2023-03-20T03:59:47.549Z,64.40
2023-03-20T04:00:47.534Z,64.79
2023-03-20T04:01:47.604Z,64.89
2023-03-20T04:02:47.550Z,64.79
2023-03-20T04:03:47.559Z,64.69
2023-03-20T04:04:47.609Z,64.89
2023-03-20T04:05:47.527Z,64.89
2023-03-20T04:06:47.520Z,64.69
2023-03-20T04:07:47.525Z,64.89
2023-03-20T04:08:47.541Z,64.98
2023-03-20T04:09:47.515Z,65.08
2023-03-20T04:10:47.512Z,64.98
2023-03-20T04:11:47.526Z,65.08
2023-03-20T04:12:47.512Z,64.98
2023-03-20T04:13:47.565Z,64.79
2023-03-20T04:14:47.508Z,64.98
2023-03-20T04:15:47.510Z,64.89
2023-03-20T04:16:47.493Z,64.79
2023-03-20T04:17:47.472Z,64.89
2023-03-20T04:18:47.537Z,64.98
2023-03-20T04:19:47.483Z,64.79
2023-03-20T04:20:47.524Z,64.79
2023-03-20T04:21:47.473Z,64.79
2023-03-20T04:22:47.484Z,64.79
2023-03-20T04:23:47.479Z,64.79
2023-03-20T04:24:47.462Z,64.69
2023-03-20T04:25:47.513Z,64.98
2023-03-20T04:26:47.466Z,65.08
2023-03-20T04:27:47.450Z,65.08
2023-03-20T04:28:47.438Z,65.08
2023-03-20T04:29:47.447Z,65.08
2023-03-20T04:30:47.442Z,65.08
2023-03-20T04:31:47.527Z,65.08
2023-03-20T04:32:47.505Z,64.98
2023-03-20T04:33:47.436Z,65.08
2023-03-20T04:34:47.450Z,65.08
2023-03-20T04:35:47.462Z,65.08
2023-03-20T04:36:47.445Z,64.50
2023-03-20T04:37:47.426Z,64.59
2023-03-20T04:38:47.417Z,64.50
2023-03-20T04:39:47.414Z,65.08
2023-03-20T04:40:47.412Z,65.08
2023-03-20T04:41:47.416Z,64.98
2023-03-20T04:42:47.399Z,65.08
2023-03-20T04:43:47.394Z,65.08
2023-03-20T04:44:47.388Z,65.08
2023-03-20T04:45:47.422Z,64.50
2023-03-20T04:46:47.381Z,64.98
2023-03-20T04:47:47.375Z,64.59
2023-03-20T04:48:47.389Z,64.59
2023-03-20T04:49:47.367Z,64.50
2023-03-20T04:50:47.393Z,64.69
2023-03-20T04:51:47.370Z,64.59
2023-03-20T04:52:47.406Z,64.89
2023-03-20T04:53:47.367Z,64.89
2023-03-20T04:54:47.368Z,64.50
2023-03-20T04:55:47.360Z,64.89
2023-03-20T04:56:47.367Z,64.59
2023-03-20T04:57:47.359Z,64.59
2023-03-20T04:58:47.350Z,64.50
2023-03-20T04:59:47.343Z,64.59
2023-03-20T05:00:47.399Z,64.50
2023-03-20T05:01:47.337Z,64.50
2023-03-20T05:02:47.337Z,64.50
2023-03-20T05:03:47.356Z,64.50
2023-03-20T05:04:47.374Z,64.50
2023-03-20T05:05:47.323Z,64.50
2023-03-20T05:06:47.325Z,64.50
2023-03-20T05:07:47.316Z,64.59
2023-03-20T05:08:47.324Z,64.59
2023-03-20T05:09:47.309Z,64.50
2023-03-20T05:10:47.304Z,64.79
2023-03-20T05:11:47.307Z,64.79
2023-03-20T05:12:47.325Z,64.59
2023-03-20T05:13:47.282Z,64.59
2023-03-20T05:14:47.291Z,64.69
2023-03-20T05:15:47.293Z,64.69
2023-03-20T05:16:47.323Z,64.69
2023-03-20T05:17:47.281Z,64.59
2023-03-20T05:18:47.276Z,64.69
2023-03-20T05:19:47.260Z,64.69
2023-03-20T05:20:47.275Z,64.59
2023-03-20T05:21:47.250Z,64.40
2023-03-20T05:22:47.249Z,64.69
2023-03-20T05:23:47.242Z,64.59
2023-03-20T05:24:47.276Z,64.59
2023-03-20T05:25:47.234Z,64.59
2023-03-20T05:26:47.279Z,64.59
2023-03-20T05:27:47.244Z,64.59
2023-03-20T05:28:47.229Z,64.69
2023-03-20T05:29:47.240Z,64.59
2023-03-20T05:30:47.245Z,64.59
2023-03-20T05:31:47.221Z,64.59
2023-03-20T05:32:47.334Z,64.59
2023-03-20T05:33:47.218Z,64.59
2023-03-20T05:34:47.213Z,64.59
2023-03-20T05:35:47.242Z,64.50
2023-03-20T05:36:47.219Z,64.50
2023-03-20T05:37:47.193Z,64.50
2023-03-20T05:38:47.200Z,64.59
2023-03-20T05:39:47.190Z,64.59
2023-03-20T05:40:47.221Z,64.69
2023-03-20T05:41:47.234Z,64.79
2023-03-20T05:42:47.201Z,64.59
2023-03-20T05:43:47.207Z,64.22
2023-03-20T05:44:47.190Z,64.22
2023-03-20T05:45:47.219Z,64.22
2023-03-20T05:46:47.173Z,64.50
2023-03-20T05:47:47.159Z,64.22
2023-03-20T05:48:47.167Z,64.02
2023-03-20T05:49:47.166Z,64.22
2023-03-20T05:50:47.191Z,63.73
2023-03-20T05:51:47.151Z,64.22
2023-03-20T05:52:47.153Z,64.34
2023-03-20T05:53:47.154Z,63.83
2023-03-20T05:54:47.147Z,63.57
2023-03-20T05:55:47.137Z,63.57
2023-03-20T05:56:47.254Z,63.76
2023-03-20T05:57:47.135Z,63.86
2023-03-20T05:58:47.137Z,63.67
2023-03-20T05:59:47.130Z,63.48
2023-03-20T06:00:47.140Z,63.38
2023-03-20T06:01:47.135Z,63.57
2023-03-20T06:02:47.779Z,63.48
2023-03-20T06:03:47.202Z,63.48
2023-03-20T06:04:47.110Z,63.57
2023-03-20T06:05:47.112Z,63.19
2023-03-20T06:06:47.121Z,63.48
2023-03-20T06:07:47.132Z,63.38
2023-03-20T06:08:47.100Z,63.28
2023-03-20T06:09:47.105Z,63.19
2023-03-20T06:10:47.090Z,63.38
2023-03-20T06:11:47.111Z,63.09
2023-03-20T06:12:47.102Z,63.38
2023-03-20T06:13:47.092Z,62.93
2023-03-20T06:14:47.094Z,63.12
2023-03-20T06:15:47.129Z,63.19
2023-03-20T06:16:47.074Z,62.84
2023-03-20T06:17:47.093Z,63.22
2023-03-20T06:18:47.071Z,63.32
2023-03-20T06:19:47.072Z,63.02
2023-03-20T06:20:47.086Z,63.02
2023-03-20T06:21:47.065Z,62.84
2023-03-20T06:22:47.074Z,62.84
2023-03-20T06:23:47.057Z,62.84
2023-03-20T06:24:47.064Z,62.74
2023-03-20T06:25:47.051Z,62.64
2023-03-20T06:26:47.064Z,62.74
2023-03-20T06:27:47.065Z,62.74
2023-03-20T06:28:47.098Z,62.93
2023-03-20T06:29:47.069Z,62.45
2023-03-20T06:30:47.114Z,62.64
2023-03-20T06:31:47.042Z,62.35
2023-03-20T06:32:47.109Z,62.45
2023-03-20T06:33:47.055Z,62.55
2023-03-20T06:34:47.031Z,62.55
2023-03-20T06:35:47.044Z,62.68
2023-03-20T06:36:47.038Z,62.68
2023-03-20T06:37:47.036Z,62.68
2023-03-20T06:38:47.076Z,62.35
2023-03-20T06:39:47.008Z,62.48
2023-03-20T06:40:47.018Z,62.45
2023-03-20T06:41:47.044Z,62.45
2023-03-20T06:42:47.014Z,62.35
2023-03-20T06:43:47.018Z,62.48
2023-03-20T06:44:47.027Z,62.84
2023-03-20T06:45:47.009Z,62.84
2023-03-20T06:46:47.048Z,62.87
2023-03-20T06:47:47.015Z,62.87
2023-03-20T06:48:46.995Z,62.84
2023-03-20T06:49:47.003Z,63.12
2023-03-20T06:50:46.980Z,63.22
2023-03-20T06:51:46.990Z,63.06
2023-03-20T06:52:46.974Z,63.22
2023-03-20T06:53:46.975Z,63.35
2023-03-20T06:54:46.968Z,62.93
2023-03-20T06:55:46.971Z,63.02
2023-03-20T06:56:46.972Z,63.22
2023-03-20T06:57:46.967Z,63.32
2023-03-20T06:58:46.962Z,62.96
2023-03-20T06:59:46.963Z,63.02
2023-03-20T07:00:46.986Z,63.12
2023-03-20T07:01:46.983Z,63.22
2023-03-20T07:02:46.968Z,63.06
2023-03-20T07:03:46.950Z,63.22
2023-03-20T07:04:47.020Z,63.12
2023-03-20T07:05:46.962Z,63.41
2023-03-20T07:06:46.961Z,63.41
2023-03-20T07:07:46.955Z,63.41
2023-03-20T07:08:46.947Z,63.41
2023-03-20T07:09:46.947Z,63.22
2023-03-20T07:10:46.962Z,63.22
2023-03-20T07:11:46.943Z,63.32
2023-03-20T07:12:46.924Z,63.32
2023-03-20T07:13:49.757Z,63.70
2023-03-20T07:14:46.940Z,63.51
2023-03-20T07:16:03.111Z,63.51
2023-03-20T07:16:47.014Z,63.70
2023-03-20T07:17:46.951Z,63.89
2023-03-20T07:18:46.924Z,63.51
2023-03-20T07:19:46.916Z,63.79
2023-03-20T07:20:46.925Z,63.51
2023-03-20T07:21:46.930Z,63.51
2023-03-20T07:22:46.897Z,63.60
2023-03-20T07:23:46.913Z,63.60
2023-03-20T07:24:47.426Z,63.41
2023-03-20T07:25:47.342Z,63.70
2023-03-20T07:26:46.890Z,63.41
2023-03-20T07:27:46.896Z,63.32
2023-03-20T07:28:46.888Z,63.51
2023-03-20T07:29:46.910Z,63.41
2023-03-20T07:30:46.892Z,63.41
2023-03-20T07:31:46.978Z,63.79
2023-03-20T07:32:46.920Z,63.89
2023-03-20T07:33:46.895Z,63.99
2023-03-20T07:34:46.884Z,63.79
2023-03-20T07:35:46.986Z,63.60
2023-03-20T07:36:46.877Z,63.79
2023-03-20T07:37:46.865Z,63.79
2023-03-20T07:38:46.857Z,63.79
2023-03-20T07:39:46.869Z,63.70
2023-03-20T07:40:46.868Z,63.60
2023-03-20T07:41:46.866Z,63.60
2023-03-20T07:42:46.865Z,63.60
2023-03-20T07:43:46.857Z,63.60
2023-03-20T07:44:46.842Z,63.70
2023-03-20T07:45:46.906Z,63.70
2023-03-20T07:46:46.834Z,63.89
2023-03-20T07:47:46.954Z,63.41
2023-03-20T07:48:47.023Z,63.79
2023-03-20T07:49:46.849Z,63.99
2023-03-20T07:50:46.821Z,63.99
2023-03-20T07:51:46.840Z,63.99
2023-03-20T07:52:46.835Z,64.09
2023-03-20T07:53:46.824Z,63.99
2023-03-20T07:54:46.824Z,63.89
2023-03-20T07:55:46.805Z,63.99
2023-03-20T07:56:46.817Z,64.37
2023-03-20T07:57:46.804Z,64.05
2023-03-20T07:58:46.811Z,63.89
2023-03-20T07:59:46.814Z,64.09
2023-03-20T08:00:46.808Z,63.86
2023-03-20T08:01:46.908Z,64.15
2023-03-20T08:02:46.997Z,63.79
2023-03-20T08:03:46.893Z,64.28
2023-03-20T08:04:46.805Z,64.28
2023-03-20T08:05:47.689Z,64.25
2023-03-20T08:06:46.785Z,64.18
2023-03-20T08:07:46.801Z,64.25
2023-03-20T08:08:46.765Z,64.37
2023-03-20T08:09:46.786Z,64.34
2023-03-20T08:10:46.791Z,64.37
2023-03-20T08:11:46.777Z,64.53
2023-03-20T08:12:46.782Z,64.18
2023-03-20T08:13:46.797Z,64.56
2023-03-20T08:14:46.770Z,64.28
2023-03-20T08:15:46.788Z,64.28
2023-03-20T08:16:46.815Z,64.18
2023-03-20T08:17:46.764Z,64.25
2023-03-20T08:18:46.754Z,64.34
2023-03-20T08:19:46.764Z,64.34
2023-03-20T08:20:46.781Z,64.28
2023-03-20T08:21:46.736Z,64.28
2023-03-20T08:22:46.756Z,64.05
2023-03-20T08:23:46.738Z,64.05
2023-03-20T08:24:46.728Z,64.25
2023-03-20T08:25:46.729Z,64.05
2023-03-20T08:26:46.739Z,64.63
2023-03-20T08:27:46.738Z,64.53
2023-03-20T08:28:48.458Z,64.43
2023-03-20T08:29:46.720Z,63.96
2023-03-20T08:30:46.758Z,64.63
2023-03-20T08:31:46.724Z,64.53
2023-03-20T08:32:46.765Z,64.53
2023-03-20T08:33:46.727Z,64.63
2023-03-20T08:34:46.697Z,64.53
2023-03-20T08:35:47.003Z,64.53
2023-03-20T08:36:46.762Z,64.34
2023-03-20T08:37:46.746Z,64.34
2023-03-20T08:38:46.687Z,64.34
2023-03-20T08:39:46.706Z,64.34
2023-03-20T08:40:46.699Z,64.43
2023-03-20T08:41:46.703Z,64.34
2023-03-20T08:42:46.695Z,64.34
2023-03-20T08:43:46.689Z,64.25
2023-03-20T08:44:46.683Z,64.25
2023-03-20T08:45:46.738Z,64.43
2023-03-20T08:46:46.704Z,64.25
2023-03-20T08:47:46.662Z,64.25
2023-03-20T08:48:46.667Z,64.34
2023-03-20T08:49:46.673Z,64.25
2023-03-20T08:50:46.877Z,64.25
2023-03-20T08:51:46.664Z,64.34
2023-03-20T08:52:46.697Z,64.34
2023-03-20T08:53:46.665Z,64.34
2023-03-20T08:54:46.659Z,64.34
2023-03-20T08:55:46.664Z,64.05
2023-03-20T08:56:46.666Z,64.34
2023-03-20T08:57:46.652Z,64.25
2023-03-20T08:58:46.638Z,64.34
2023-03-20T08:59:46.641Z,64.25
2023-03-20T09:00:46.627Z,64.05
2023-03-20T09:01:50.140Z,64.25
2023-03-20T09:02:46.668Z,64.25
2023-03-20T09:03:46.612Z,64.25
2023-03-20T09:04:46.620Z,64.25
2023-03-20T09:05:46.619Z,64.25
2023-03-20T09:06:46.623Z,64.82
2023-03-20T09:07:46.613Z,64.92
2023-03-20T09:08:46.627Z,64.25
2023-03-20T09:09:46.612Z,64.25
2023-03-20T09:10:46.621Z,64.72
2023-03-20T09:11:46.606Z,64.25
2023-03-20T09:12:46.605Z,64.34
2023-03-20T09:13:46.583Z,64.25
2023-03-20T09:14:46.577Z,64.82
2023-03-20T09:15:46.648Z,64.25
2023-03-20T09:16:46.583Z,64.25
2023-03-20T09:17:46.577Z,64.34
2023-03-20T09:18:46.570Z,64.82
2023-03-20T09:19:46.584Z,64.25
2023-03-20T09:20:46.574Z,64.82
2023-03-20T09:21:46.562Z,64.34
2023-03-20T09:22:46.562Z,64.34
2023-03-20T09:23:46.562Z,64.34
2023-03-20T09:24:46.610Z,64.25
2023-03-20T09:25:46.573Z,64.34
2023-03-20T09:26:46.544Z,64.82
2023-03-20T09:27:46.561Z,65.01
2023-03-20T09:28:46.553Z,64.25
2023-03-20T09:29:46.558Z,64.25
2023-03-20T09:30:46.595Z,64.82
2023-03-20T09:31:46.544Z,64.92
2023-03-20T09:32:46.570Z,64.82
2023-03-20T09:33:46.543Z,64.92
2023-03-20T09:34:46.522Z,64.92
2023-03-20T09:35:46.570Z,64.92
2023-03-20T09:36:46.513Z,64.53
2023-03-20T09:37:46.541Z,64.25
2023-03-20T09:38:46.524Z,64.53
2023-03-20T09:39:46.531Z,64.53
2023-03-20T09:40:46.539Z,64.53
2023-03-20T09:41:56.641Z,64.63
2023-03-20T09:42:46.527Z,65.01
2023-03-20T09:43:46.505Z,64.63
2023-03-20T09:44:46.497Z,64.63
2023-03-20T09:45:46.561Z,64.63
2023-03-20T09:46:46.574Z,64.92
2023-03-20T09:47:46.510Z,64.53
2023-03-20T09:48:46.501Z,64.53
2023-03-20T09:49:46.524Z,64.82
2023-03-20T09:50:46.480Z,64.92
2023-03-20T09:51:46.502Z,64.25
2023-03-20T09:52:46.484Z,65.01
2023-03-20T09:53:46.484Z,64.92
2023-03-20T09:54:54.057Z,64.53
2023-03-20T09:55:46.517Z,64.34
2023-03-20T09:56:46.496Z,64.92
2023-03-20T09:57:46.453Z,64.63
2023-03-20T09:58:46.461Z,64.53
2023-03-20T09:59:46.467Z,64.63
2023-03-20T10:00:46.462Z,64.63
2023-03-20T10:01:46.539Z,64.53
2023-03-20T10:02:46.482Z,64.53
2023-03-20T10:03:46.433Z,64.63
2023-03-20T10:04:46.476Z,64.82
2023-03-20T10:05:46.436Z,64.63
2023-03-20T10:06:46.558Z,64.63
2023-03-20T10:07:46.437Z,64.72
2023-03-20T10:08:46.428Z,64.82
2023-03-20T10:09:46.421Z,64.53
2023-03-20T10:10:46.438Z,64.72
2023-03-20T10:11:46.434Z,64.72
2023-03-20T10:12:46.444Z,64.82
2023-03-20T10:13:46.425Z,64.82
2023-03-20T10:14:46.405Z,64.82
2023-03-20T10:15:46.413Z,64.82
2023-03-20T10:16:46.473Z,64.72
2023-03-20T10:17:46.396Z,64.92
2023-03-20T10:18:46.404Z,64.63
2023-03-20T10:19:46.390Z,64.82
2023-03-20T10:20:47.499Z,64.72
2023-03-20T10:21:46.413Z,64.63
2023-03-20T10:22:46.399Z,64.72
2023-03-20T10:23:46.388Z,64.82
2023-03-20T10:24:46.389Z,64.63
2023-03-20T10:25:46.376Z,64.63
2023-03-20T10:26:46.405Z,64.63
2023-03-20T10:27:46.387Z,64.34
2023-03-20T10:28:46.395Z,64.92
2023-03-20T10:29:46.371Z,64.82
2023-03-20T10:30:46.359Z,64.63
2023-03-20T10:31:46.473Z,64.92
2023-03-20T10:32:46.455Z,64.92
2023-03-20T10:33:46.387Z,64.53
2023-03-20T10:34:46.355Z,64.63
2023-03-20T10:35:46.406Z,64.53
2023-03-20T10:36:46.403Z,64.82
2023-03-20T10:37:46.344Z,64.53
2023-03-20T10:38:46.350Z,64.53
2023-03-20T10:39:46.332Z,64.34
2023-03-20T10:40:46.342Z,64.82
2023-03-20T10:41:46.323Z,64.63
2023-03-20T10:42:46.341Z,64.34
2023-03-20T10:43:46.331Z,64.92
2023-03-20T10:44:46.375Z,64.25
2023-03-20T10:45:46.327Z,64.34
2023-03-20T10:46:46.485Z,64.82
2023-03-20T10:47:46.386Z,64.82
2023-03-20T10:48:46.325Z,64.25
2023-03-20T10:49:46.299Z,64.15
2023-03-20T10:50:46.303Z,64.25
2023-03-20T10:51:46.309Z,64.25
2023-03-20T10:52:46.299Z,64.25
2023-03-20T10:53:46.284Z,64.92
2023-03-20T10:54:46.297Z,64.34
2023-03-20T10:55:46.344Z,65.01
2023-03-20T10:56:46.284Z,64.53
2023-03-20T10:57:46.289Z,64.92
2023-03-20T10:58:46.311Z,64.72
2023-03-20T10:59:46.290Z,64.63
2023-03-20T11:00:46.320Z,64.53
2023-03-20T11:01:46.279Z,64.63
2023-03-20T11:02:46.278Z,64.63
2023-03-20T11:03:46.255Z,64.82
2023-03-20T11:04:46.256Z,64.63
2023-03-20T11:05:55.606Z,64.82
2023-03-20T11:06:46.257Z,64.82
2023-03-20T11:07:46.258Z,64.72
2023-03-20T11:08:46.268Z,64.72
2023-03-20T11:09:46.252Z,64.82
2023-03-20T11:10:46.239Z,64.72
2023-03-20T11:11:46.248Z,64.72
2023-03-20T11:12:46.241Z,64.82
2023-03-20T11:13:46.245Z,64.63
2023-03-20T11:14:46.243Z,64.82
2023-03-20T11:15:46.247Z,64.63
2023-03-20T11:16:46.301Z,64.82
2023-03-20T11:17:46.231Z,64.72
2023-03-20T11:18:46.240Z,64.72
2023-03-20T11:19:46.214Z,64.82
2023-03-20T11:20:46.216Z,64.82
2023-03-20T11:21:46.230Z,64.72
2023-03-20T11:22:46.226Z,64.63
2023-03-20T11:23:46.202Z,64.82
2023-03-20T11:24:46.202Z,64.63
2023-03-20T11:25:46.193Z,64.92
2023-03-20T11:26:46.199Z,64.63
2023-03-20T11:27:46.200Z,64.82
2023-03-20T11:28:46.207Z,64.72
2023-03-20T11:29:46.187Z,64.72
2023-03-20T11:31:03.588Z,64.63
2023-03-20T11:31:46.294Z,64.72
2023-03-20T11:32:46.216Z,64.63
2023-03-20T11:33:46.219Z,64.82
2023-03-20T11:34:46.182Z,64.63
2023-03-20T11:35:46.207Z,64.72
2023-03-20T11:36:48.949Z,64.72
2023-03-20T11:37:46.196Z,64.79
2023-03-20T11:38:46.177Z,64.63
2023-03-20T11:39:46.145Z,64.72
2023-03-20T11:40:46.150Z,64.63
2023-03-20T11:41:46.141Z,64.63
2023-03-20T11:42:46.143Z,64.72
2023-03-20T11:43:46.144Z,64.53
2023-03-20T11:44:46.136Z,64.63
2023-03-20T11:45:46.150Z,64.92
2023-03-20T11:46:46.142Z,64.72
2023-03-20T11:47:46.123Z,64.72
2023-03-20T11:48:46.143Z,65.01
2023-03-20T11:49:46.119Z,64.53
2023-03-20T11:50:46.131Z,64.72
2023-03-20T11:51:46.107Z,64.63
2023-03-20T11:52:46.126Z,64.63
2023-03-20T11:53:48.027Z,64.72
2023-03-20T11:54:46.105Z,64.53
2023-03-20T11:55:46.117Z,64.63
2023-03-20T11:56:46.099Z,64.72
2023-03-20T11:57:47.465Z,64.63
2023-03-20T11:58:46.109Z,64.82
2023-03-20T11:59:46.105Z,64.59
2023-03-20T12:00:46.101Z,64.63
2023-03-20T12:01:46.104Z,64.25
2023-03-20T12:02:46.226Z,64.92
2023-03-20T12:03:46.119Z,64.59
2023-03-20T12:04:46.107Z,64.53
2023-03-20T12:05:46.089Z,64.53
2023-03-20T12:06:46.090Z,64.92
2023-03-20T12:07:46.065Z,64.25
2023-03-20T12:08:46.097Z,64.92
2023-03-20T12:09:46.057Z,64.72
2023-03-20T12:10:46.072Z,64.25
2023-03-20T12:11:46.074Z,64.15
2023-03-20T12:12:46.056Z,64.34
2023-03-20T12:13:46.048Z,64.31
2023-03-20T12:14:46.067Z,64.92
2023-03-20T12:15:46.167Z,64.82
2023-03-20T12:16:46.040Z,64.25
2023-03-20T12:17:46.059Z,64.82
2023-03-20T12:18:46.036Z,64.25
2023-03-20T12:19:46.044Z,64.34
2023-03-20T12:20:46.191Z,64.25
2023-03-20T12:21:48.268Z,64.25
2023-03-20T12:22:46.038Z,64.82
2023-03-20T12:23:46.027Z,64.25
2023-03-20T12:24:46.014Z,64.40
2023-03-20T12:25:46.028Z,64.25
2023-03-20T12:26:46.017Z,64.22
2023-03-20T12:27:46.026Z,64.82
2023-03-20T12:28:46.016Z,64.82
2023-03-20T12:29:45.994Z,64.22
2023-03-20T12:30:46.051Z,64.22
2023-03-20T12:31:46.021Z,64.22
2023-03-20T12:32:46.094Z,64.82
2023-03-20T12:33:45.984Z,64.12
2023-03-20T12:34:45.984Z,64.15
2023-03-20T12:35:46.013Z,64.25
2023-03-20T12:36:46.004Z,64.12
2023-03-20T12:37:45.991Z,64.22
2023-03-20T12:38:45.984Z,64.05
2023-03-20T12:39:45.978Z,64.34
2023-03-20T12:40:45.968Z,64.34
2023-03-20T12:41:45.975Z,64.25
2023-03-20T12:42:45.967Z,64.34
2023-03-20T12:43:45.953Z,64.31
2023-03-20T12:44:45.965Z,64.22
2023-03-20T12:45:45.947Z,64.34
2023-03-20T12:46:46.067Z,64.34
2023-03-20T12:47:45.942Z,64.31
2023-03-20T12:48:45.950Z,64.31
2023-03-20T12:49:45.941Z,64.31
2023-03-20T12:50:45.936Z,64.34
2023-03-20T12:51:45.941Z,64.31
2023-03-20T12:52:45.961Z,64.34